Terminal Aerodrome Forecast
Issued by NWS Jacksonville, FL

Home | Current Version | Previous Version | Text Only | Print | Product List | Glossary On
Versions: 1 2 3 4 5 6 7 8 9 10 11 12 13 14 15 16 17 18 19 20 21
000
FTUS42 KJAX 291721
TAFSSI
TAF
KSSI 291721Z 2918/3018 13012G19KT P6SM SCT030 SCT250
     FM300200 13011KT P6SM SCT008 BKN015
     FM300500 14010KT P6SM BKN008 OVC015
     FM301500 14014G22KT P6SM BKN025=

USA.gov is the U.S. government's official web portal to all federal, state and local government web resources and services.